Time;durP1;ratioP1;P1;durP2;ratioP2;P2;SDS_P1;SDS_P2;PMS_P1;PMS_P2;Temp;Humidity;BMP_temperature;BMP_pressure;BME280_temperature;BME280_humidity;BME280_pressure;Samples;Min_cycle;Max_cycle;Signal;HPM_P1;HPM_P2
2019/06/11 00:00:38;;;;;;;8.6;6.7;;;;;;;;;;;;;
2019/06/11 00:03:03;;;;;;;9.2;7.3;;;;;;;;;;;;;
2019/06/11 00:05:28;;;;;;;8.8;7.1;;;;;;;;;;;;;
2019/06/11 00:07:53;;;;;;;9.2;7.3;;;;;;;;;;;;;
2019/06/11 00:10:18;;;;;;;10.7;7.3;;;;;;;;;;;;;
2019/06/11 00:12:43;;;;;;;9.9;7.1;;;;;;;;;;;;;
2019/06/11 00:15:08;;;;;;;10.2;7.9;;;;;;;;;;;;;
2019/06/11 00:17:33;;;;;;;9.1;7.7;;;;;;;;;;;;;
2019/06/11 00:19:59;;;;;;;10.1;8.3;;;;;;;;;;;;;
2019/06/11 00:22:24;;;;;;;8.2;7.3;;;;;;;;;;;;;
2019/06/11 00:24:49;;;;;;;11.8;8;;;;;;;;;;;;;
2019/06/11 00:27:14;;;;;;;9;7.7;;;;;;;;;;;;;
2019/06/11 00:29:39;;;;;;;9.4;8.4;;;;;;;;;;;;;
2019/06/11 00:32:04;;;;;;;11.5;9.1;;;;;;;;;;;;;
2019/06/11 00:34:29;;;;;;;10.4;8.2;;;;;;;;;;;;;
2019/06/11 00:36:54;;;;;;;10.7;8.9;;;;;;;;;;;;;
2019/06/11 00:39:19;;;;;;;10.9;8.8;;;;;;;;;;;;;
2019/06/11 00:41:44;;;;;;;10.8;9.7;;;;;;;;;;;;;
2019/06/11 00:44:09;;;;;;;11.6;10;;;;;;;;;;;;;
2019/06/11 00:46:34;;;;;;;12.6;10.4;;;;;;;;;;;;;
2019/06/11 00:49:00;;;;;;;12.3;11;;;;;;;;;;;;;
2019/06/11 00:51:25;;;;;;;14.3;11.9;;;;;;;;;;;;;
2019/06/11 00:53:50;;;;;;;13.6;12.2;;;;;;;;;;;;;
2019/06/11 00:56:15;;;;;;;11.6;10.1;;;;;;;;;;;;;
2019/06/11 00:58:40;;;;;;;13.1;11.7;;;;;;;;;;;;;
2019/06/11 01:01:05;;;;;;;14.1;12.3;;;;;;;;;;;;;
2019/06/11 01:03:30;;;;;;;15.2;12.3;;;;;;;;;;;;;
2019/06/11 01:05:55;;;;;;;13.8;12.2;;;;;;;;;;;;;
2019/06/11 01:08:20;;;;;;;14.1;12.7;;;;;;;;;;;;;
2019/06/11 01:10:45;;;;;;;13.1;11.8;;;;;;;;;;;;;
2019/06/11 01:13:10;;;;;;;14.4;12.9;;;;;;;;;;;;;
2019/06/11 01:15:35;;;;;;;16.1;13.7;;;;;;;;;;;;;
2019/06/11 01:18:00;;;;;;;15.2;13.7;;;;;;;;;;;;;
2019/06/11 01:20:25;;;;;;;17.2;15.4;;;;;;;;;;;;;
2019/06/11 01:22:50;;;;;;;17.4;15.6;;;;;;;;;;;;;
2019/06/11 01:25:16;;;;;;;16.1;14.5;;;;;;;;;;;;;
2019/06/11 01:27:41;;;;;;;17.7;15.8;;;;;;;;;;;;;
2019/06/11 01:30:06;;;;;;;19.1;17.1;;;;;;;;;;;;;
2019/06/11 01:32:31;;;;;;;17.8;15.6;;;;;;;;;;;;;
2019/06/11 01:34:56;;;;;;;18.2;16.3;;;;;;;;;;;;;
2019/06/11 01:37:21;;;;;;;20;17.2;;;;;;;;;;;;;
2019/06/11 01:39:46;;;;;;;17.2;15.5;;;;;;;;;;;;;
2019/06/11 01:42:11;;;;;;;17.8;16;;;;;;;;;;;;;
2019/06/11 01:44:36;;;;;;;17.1;15.4;;;;;;;;;;;;;
2019/06/11 01:47:02;;;;;;;18.1;16.2;;;;;;;;;;;;;
2019/06/11 01:49:27;;;;;;;18.4;16.4;;;;;;;;;;;;;
2019/06/11 01:51:52;;;;;;;20;16.6;;;;;;;;;;;;;
2019/06/11 01:54:17;;;;;;;18.6;16.7;;;;;;;;;;;;;
2019/06/11 01:56:42;;;;;;;18;16.2;;;;;;;;;;;;;
2019/06/11 01:59:07;;;;;;;19.8;17.6;;;;;;;;;;;;;
2019/06/11 02:01:32;;;;;;;18.1;16.2;;;;;;;;;;;;;
2019/06/11 02:03:58;;;;;;;18.8;16.8;;;;;;;;;;;;;
2019/06/11 02:06:23;;;;;;;20.4;18.3;;;;;;;;;;;;;
2019/06/11 02:08:48;;;;;;;18.3;16.5;;;;;;;;;;;;;
2019/06/11 02:11:13;;;;;;;18;16.1;;;;;;;;;;;;;
2019/06/11 02:13:38;;;;;;;18.6;16.8;;;;;;;;;;;;;
2019/06/11 02:16:03;;;;;;;19.7;17.3;;;;;;;;;;;;;
2019/06/11 02:18:28;;;;;;;17.6;15.9;;;;;;;;;;;;;
2019/06/11 02:20:53;;;;;;;19.2;17.3;;;;;;;;;;;;;
2019/06/11 02:23:18;;;;;;;19.9;18;;;;;;;;;;;;;
2019/06/11 02:25:44;;;;;;;18.7;16.7;;;;;;;;;;;;;
2019/06/11 02:28:09;;;;;;;17.1;15.4;;;;;;;;;;;;;
2019/06/11 02:30:34;;;;;;;17.1;14.5;;;;;;;;;;;;;
2019/06/11 02:32:59;;;;;;;12.9;11.7;;;;;;;;;;;;;
2019/06/11 02:35:24;;;;;;;10.9;8.7;;;;;;;;;;;;;
2019/06/11 02:37:49;;;;;;;9.8;8.8;;;;;;;;;;;;;
2019/06/11 02:40:15;;;;;;;7.4;5.8;;;;;;;;;;;;;
2019/06/11 02:42:40;;;;;;;4.1;3.6;;;;;;;;;;;;;
2019/06/11 02:45:05;;;;;;;4.4;3.4;;;;;;;;;;;;;
2019/06/11 02:47:30;;;;;;;3;2.3;;;;;;;;;;;;;
2019/06/11 02:49:55;;;;;;;4;2.9;;;;;;;;;;;;;
2019/06/11 02:52:20;;;;;;;2.9;2.6;;;;;;;;;;;;;
2019/06/11 02:54:45;;;;;;;4;2.8;;;;;;;;;;;;;
2019/06/11 02:57:10;;;;;;;3.4;2.5;;;;;;;;;;;;;
2019/06/11 02:59:35;;;;;;;3;2.1;;;;;;;;;;;;;
2019/06/11 03:02:01;;;;;;;3.3;1.7;;;;;;;;;;;;;
2019/06/11 03:04:26;;;;;;;2.4;1.3;;;;;;;;;;;;;
2019/06/11 03:06:51;;;;;;;3.3;1.2;;;;;;;;;;;;;
2019/06/11 03:09:16;;;;;;;1.8;1.1;;;;;;;;;;;;;
2019/06/11 03:11:41;;;;;;;2.1;1;;;;;;;;;;;;;
2019/06/11 03:14:07;;;;;;;1.5;0.9;;;;;;;;;;;;;
2019/06/11 03:16:33;;;;;;;3;0.9;;;;;;;;;;;;;
2019/06/11 03:18:57;;;;;;;1.7;0.8;;;;;;;;;;;;;
2019/06/11 03:21:23;;;;;;;1.6;0.9;;;;;;;;;;;;;
2019/06/11 03:23:48;;;;;;;1.9;1.1;;;;;;;;;;;;;
2019/06/11 03:26:13;;;;;;;2.5;1.4;;;;;;;;;;;;;
2019/06/11 03:28:38;;;;;;;2.1;1.1;;;;;;;;;;;;;
2019/06/11 03:31:03;;;;;;;1.9;1.2;;;;;;;;;;;;;
2019/06/11 03:33:28;;;;;;;2.6;1.2;;;;;;;;;;;;;
2019/06/11 03:35:53;;;;;;;1.5;1.2;;;;;;;;;;;;;
2019/06/11 03:38:18;;;;;;;1.9;1.2;;;;;;;;;;;;;
2019/06/11 03:40:43;;;;;;;2.9;1.6;;;;;;;;;;;;;
2019/06/11 03:43:08;;;;;;;1.8;1.4;;;;;;;;;;;;;
2019/06/11 03:45:34;;;;;;;2.6;1.8;;;;;;;;;;;;;
2019/06/11 03:47:59;;;;;;;2.4;1.5;;;;;;;;;;;;;
2019/06/11 03:50:24;;;;;;;2.8;1.5;;;;;;;;;;;;;
2019/06/11 03:52:49;;;;;;;2.7;1.4;;;;;;;;;;;;;
2019/06/11 03:55:14;;;;;;;3.2;2;;;;;;;;;;;;;
2019/06/11 03:57:39;;;;;;;2.9;1.8;;;;;;;;;;;;;
2019/06/11 04:02:28;;;;;;;2.9;2.1;;;;;;;14.34;93.73535;957.8599;;;;
2019/06/11 04:04:53;;;;;;;3.1;2.2;;;;;;;14.39;93.82813;957.8552;;;;
2019/06/11 04:07:19;;;;;;;3.5;2.1;;;;;;;14.41;93.83008;957.9156;;;;
2019/06/11 04:09:44;;;;;;;3.4;2.4;;;;;;;14.41;94.71387;957.9156;;;;
2019/06/11 04:12:09;;;;;;;3.2;1.8;;;;;;;14.31;92.18359;957.8984;;;;
2019/06/11 04:14:34;;;;;;;3.4;1.7;;;;;;;14.31;92.64941;957.8574;;;;
2019/06/11 04:16:59;;;;;;;2.5;1.6;;;;;;;14.34;91.29688;957.8582;;;;
2019/06/11 04:19:24;;;;;;;3;1.6;;;;;;;14.49;91.23633;957.8904;;;;
2019/06/11 04:21:49;;;;;;;3.4;1.9;;;;;;;14.37;90.84961;957.7493;;;;
2019/06/11 04:24:14;;;;;;;2.4;1.8;;;;;;;14.34;91.72656;957.6844;;;;
2019/06/11 04:26:39;;;;;;;2.2;1.7;;;;;;;14.45;92.15527;957.5075;;;;
2019/06/11 04:29:04;;;;;;;2.1;1.7;;;;;;;14.31;91.20996;957.3574;;;;
2019/06/11 04:31:30;;;;;;;2.6;1.7;;;;;;;14.34;89.96191;957.1409;;;;
2019/06/11 04:33:55;;;;;;;3;1.9;;;;;;;14.32;90.94336;957.108;;;;
2019/06/11 04:36:20;;;;;;;2.3;1.5;;;;;;;14.43;89.5625;957.0926;;;;
2019/06/11 04:38:45;;;;;;;2.5;1.7;;;;;;;14.44;92.33984;956.967;;;;
2019/06/11 04:41:10;;;;;;;2.2;1.9;;;;;;;14.46;92.19238;956.8351;;;;
2019/06/11 04:43:35;;;;;;;3.7;1.8;;;;;;;14.39;90.72754;956.6041;;;;
2019/06/11 04:46:00;;;;;;;2.5;1.7;;;;;;;14.33;90.20215;956.4194;;;;
2019/06/11 04:48:25;;;;;;;3.4;2;;;;;;;14.13;91.79883;956.3008;;;;
2019/06/11 04:50:57;;;;;;;3.1;2.1;;;;;;;14.13;90.61523;956.1803;;;;
2019/06/11 04:53:15;;;;;;;4;2;;;;;;;14.13;92.50488;955.9197;;;;
2019/06/11 04:55:43;;;;;;;3.4;2.1;;;;;;;14.11;92.0957;955.7967;;;;
2019/06/11 04:58:08;;;;;;;3.6;2.2;;;;;;;14.08;94.60742;955.7492;;;;
2019/06/11 05:00:36;;;;;;;4;2.3;;;;;;;14.18;93.87402;955.7837;;;;
2019/06/11 05:03:01;;;;;;;4.3;2;;;;;;;14.18;93.50293;955.8817;;;;
2019/06/11 05:05:26;;;;;;;3.9;2.6;;;;;;;14.22;94.66016;955.9796;;;;
2019/06/11 05:07:53;;;;;;;4.8;2.9;;;;;;;14.23;94.19922;956.0506;;;;
2019/06/11 05:10:18;;;;;;;3.9;2.3;;;;;;;14.38;93.60547;955.9619;;;;
2019/06/11 05:12:43;;;;;;;2.8;2;;;;;;;14.55;92.86133;955.908;;;;
2019/06/11 05:15:08;;;;;;;2.9;2.4;;;;;;;14.42;94.30957;955.8226;;;;
2019/06/11 05:17:33;;;;;;;3.6;2.2;;;;;;;14.49;92.97852;955.7445;;;;
2019/06/11 05:19:58;;;;;;;2.7;1.6;;;;;;;14.48;90.83789;955.6919;;;;
2019/06/11 05:22:23;;;;;;;2.3;1.7;;;;;;;14.36;93.47168;955.6827;;;;
2019/06/11 05:24:49;;;;;;;3.1;1.8;;;;;;;14.44;91.68945;955.6691;;;;
2019/06/11 05:27:14;;;;;;;3.6;1.3;;;;;;;14.53;90.20996;955.7798;;;;
2019/06/11 05:29:39;;;;;;;4.1;2.4;;;;;;;14.59;92.10449;955.7437;;;;
2019/06/11 05:32:04;;;;;;;1.6;1.2;;;;;;;14.57;89.82422;955.6429;;;;
2019/06/11 05:34:29;;;;;;;1.8;1.2;;;;;;;14.64;88.56055;955.5541;;;;
2019/06/11 05:36:54;;;;;;;1.8;1.4;;;;;;;14.69;88.28125;955.563;;;;
2019/06/11 05:39:19;;;;;;;2.7;1.3;;;;;;;14.69;88.44238;955.6484;;;;
2019/06/11 05:41:45;;;;;;;3;1.2;;;;;;;14.89;88.63281;955.7073;;;;
2019/06/11 05:44:11;;;;;;;2.2;1.4;;;;;;;14.85;88.38184;955.7133;;;;
2019/06/11 05:46:36;;;;;;;1.9;1.2;;;;;;;14.82;89.25977;955.7955;;;;
2019/06/11 05:49:01;;;;;;;1.3;1;;;;;;;14.86;86.34961;955.7903;;;;
2019/06/11 05:51:26;;;;;;;2.4;1.2;;;;;;;14.84;89.44727;955.9597;;;;
2019/06/11 05:53:51;;;;;;;1.4;1;;;;;;;15.03;87.25391;956.0147;;;;
2019/06/11 05:56:19;;;;;;;2.7;1.1;;;;;;;14.9;90.29883;956.0004;;;;
2019/06/11 05:58:44;;;;;;;3.4;1.2;;;;;;;15.08;89.77832;955.9611;;;;
2019/06/11 06:01:12;;;;;;;1.6;1.4;;;;;;;15.09;91.20801;955.9102;;;;
2019/06/11 06:03:37;;;;;;;3.2;1.4;;;;;;;15.16;89.92285;955.8325;;;;
2019/06/11 06:06:02;;;;;;;2.3;1.2;;;;;;;;;;;;;
2019/06/11 06:08:27;;;;;;;2.2;1.3;;;;;;;;;;;;;
2019/06/11 06:10:52;;;;;;;2.4;1.1;;;;;;;;;;;;;
2019/06/11 06:13:18;;;;;;;1.8;1.1;;;;;;;;;;;;;
2019/06/11 06:15:43;;;;;;;1.9;1.1;;;;;;;;;;;;;
2019/06/11 06:18:07;;;;;;;2.8;0.9;;;;;;;;;;;;;
2019/06/11 06:20:33;;;;;;;1.9;0.8;;;;;;;;;;;;;
2019/06/11 06:22:59;;;;;;;2.2;0.8;;;;;;;;;;;;;
2019/06/11 06:25:24;;;;;;;1.3;0.9;;;;;;;;;;;;;
2019/06/11 06:27:49;;;;;;;1;0.8;;;;;;;;;;;;;
2019/06/11 06:30:14;;;;;;;1.1;0.8;;;;;;;;;;;;;
2019/06/11 06:32:39;;;;;;;2.1;0.9;;;;;;;;;;;;;
2019/06/11 06:35:04;;;;;;;1.5;0.8;;;;;;;;;;;;;
2019/06/11 06:37:29;;;;;;;1.4;0.8;;;;;;;;;;;;;
2019/06/11 06:39:55;;;;;;;2.2;0.9;;;;;;;;;;;;;
2019/06/11 06:42:20;;;;;;;1.3;0.8;;;;;;;;;;;;;
2019/06/11 06:44:45;;;;;;;1.5;0.9;;;;;;;;;;;;;
2019/06/11 06:47:10;;;;;;;1;0.9;;;;;;;;;;;;;
2019/06/11 06:49:35;;;;;;;1.9;1;;;;;;;;;;;;;
2019/06/11 06:52:00;;;;;;;1.9;1;;;;;;;;;;;;;
2019/06/11 06:54:25;;;;;;;1.7;1.1;;;;;;;;;;;;;
2019/06/11 06:56:50;;;;;;;2.1;1.1;;;;;;;;;;;;;
2019/06/11 06:59:15;;;;;;;1.2;0.8;;;;;;;;;;;;;
2019/06/11 07:01:40;;;;;;;2.3;1;;;;;;;;;;;;;
2019/06/11 07:04:06;;;;;;;1.5;1.2;;;;;;;;;;;;;
2019/06/11 07:06:31;;;;;;;2;1.1;;;;;;;;;;;;;
2019/06/11 07:08:56;;;;;;;1.2;0.9;;;;;;;;;;;;;
2019/06/11 07:11:21;;;;;;;2.4;1.2;;;;;;;;;;;;;
2019/06/11 07:13:46;;;;;;;1.2;1.1;;;;;;;;;;;;;
2019/06/11 07:16:11;;;;;;;1.5;1;;;;;;;;;;;;;
2019/06/11 07:18:36;;;;;;;1.7;0.9;;;;;;;;;;;;;
2019/06/11 07:21:01;;;;;;;4.4;1.5;;;;;;;;;;;;;
2019/06/11 07:23:26;;;;;;;2.2;1.1;;;;;;;;;;;;;
2019/06/11 07:25:52;;;;;;;1.4;0.9;;;;;;;;;;;;;
2019/06/11 07:28:17;;;;;;;2.1;1;;;;;;;;;;;;;
2019/06/11 07:30:42;;;;;;;1.6;1.2;;;;;;;;;;;;;
2019/06/11 07:33:07;;;;;;;2.1;1;;;;;;;;;;;;;
2019/06/11 07:35:32;;;;;;;1.9;1.1;;;;;;;;;;;;;
2019/06/11 07:37:57;;;;;;;1.4;0.9;;;;;;;;;;;;;
2019/06/11 07:40:22;;;;;;;1.4;0.8;;;;;;;;;;;;;
2019/06/11 07:42:47;;;;;;;1.4;1;;;;;;;;;;;;;
2019/06/11 07:45:12;;;;;;;1.4;1;;;;;;;;;;;;;
2019/06/11 07:47:37;;;;;;;1.6;1.1;;;;;;;;;;;;;
2019/06/11 07:50:02;;;;;;;1.5;1;;;;;;;;;;;;;
2019/06/11 07:52:27;;;;;;;1.4;1.1;;;;;;;;;;;;;
2019/06/11 07:54:53;;;;;;;2.4;1;;;;;;;;;;;;;
2019/06/11 07:57:18;;;;;;;1.8;1;;;;;;;;;;;;;
2019/06/11 07:59:43;;;;;;;1;0.9;;;;;;;;;;;;;
2019/06/11 08:02:08;;;;;;;3.3;1.1;;;;;;;;;;;;;
2019/06/11 08:04:33;;;;;;;1.1;1;;;;;;;;;;;;;
2019/06/11 08:06:58;;;;;;;1;0.7;;;;;;;;;;;;;
2019/06/11 08:09:23;;;;;;;1;0.8;;;;;;;;;;;;;
2019/06/11 08:11:48;;;;;;;1.3;0.8;;;;;;;;;;;;;
2019/06/11 08:14:13;;;;;;;1;0.7;;;;;;;;;;;;;
2019/06/11 08:16:38;;;;;;;2;0.8;;;;;;;;;;;;;
2019/06/11 08:19:03;;;;;;;2.6;0.9;;;;;;;;;;;;;
2019/06/11 08:21:28;;;;;;;2.2;0.9;;;;;;;;;;;;;
2019/06/11 08:23:54;;;;;;;2.3;0.9;;;;;;;;;;;;;
2019/06/11 08:26:19;;;;;;;2.8;0.9;;;;;;;;;;;;;
2019/06/11 08:28:44;;;;;;;1.4;0.9;;;;;;;;;;;;;
2019/06/11 08:31:09;;;;;;;1.6;0.9;;;;;;;;;;;;;
2019/06/11 08:33:34;;;;;;;1.7;0.8;;;;;;;;;;;;;
2019/06/11 08:35:59;;;;;;;3.8;0.9;;;;;;;;;;;;;
2019/06/11 08:38:24;;;;;;;3;1;;;;;;;;;;;;;
2019/06/11 08:40:49;;;;;;;1.8;0.9;;;;;;;;;;;;;
2019/06/11 08:43:15;;;;;;;2.3;0.9;;;;;;;;;;;;;
2019/06/11 08:45:40;;;;;;;1.9;1.2;;;;;;;;;;;;;
2019/06/11 08:48:05;;;;;;;1.9;1.3;;;;;;;;;;;;;
2019/06/11 08:50:30;;;;;;;2.2;1;;;;;;;;;;;;;
2019/06/11 08:52:55;;;;;;;0.7;0.7;;;;;;;;;;;;;
2019/06/11 08:55:20;;;;;;;1.4;0.7;;;;;;;;;;;;;
2019/06/11 08:57:45;;;;;;;1.8;0.9;;;;;;;;;;;;;
2019/06/11 09:00:10;;;;;;;1.7;1;;;;;;;;;;;;;
2019/06/11 09:02:35;;;;;;;0.9;0.8;;;;;;;;;;;;;
2019/06/11 09:05:00;;;;;;;1.5;0.9;;;;;;;;;;;;;
2019/06/11 09:07:25;;;;;;;2.6;1;;;;;;;;;;;;;
2019/06/11 09:09:51;;;;;;;2.7;1;;;;;;;;;;;;;
2019/06/11 09:12:16;;;;;;;1.9;1;;;;;;;;;;;;;
2019/06/11 09:14:41;;;;;;;2.2;1.1;;;;;;;;;;;;;
2019/06/11 09:17:06;;;;;;;1.8;1.2;;;;;;;;;;;;;
2019/06/11 09:19:31;;;;;;;4.4;1.3;;;;;;;;;;;;;
2019/06/11 09:21:56;;;;;;;3;1.2;;;;;;;;;;;;;
2019/06/11 09:24:23;;;;;;;2.1;1.1;;;;;;;;;;;;;
2019/06/11 09:26:48;;;;;;;2.3;1.2;;;;;;;;;;;;;
2019/06/11 09:29:13;;;;;;;2.3;1.2;;;;;;;;;;;;;
2019/06/11 09:31:38;;;;;;;2.8;1.3;;;;;;;;;;;;;
2019/06/11 09:34:03;;;;;;;2.7;1.5;;;;;;;;;;;;;
2019/06/11 09:36:28;;;;;;;3.1;1.1;;;;;;;;;;;;;
2019/06/11 09:38:53;;;;;;;1.8;1.2;;;;;;;;;;;;;
2019/06/11 09:41:18;;;;;;;2.8;1.3;;;;;;;;;;;;;
2019/06/11 09:43:43;;;;;;;1.7;1.4;;;;;;;;;;;;;
2019/06/11 09:46:09;;;;;;;3;1.5;;;;;;;;;;;;;
2019/06/11 09:48:34;;;;;;;1.7;1.4;;;;;;;;;;;;;
2019/06/11 09:50:59;;;;;;;2.3;1.8;;;;;;;;;;;;;
2019/06/11 09:53:24;;;;;;;4;1.9;;;;;;;;;;;;;
2019/06/11 09:55:49;;;;;;;2;1.6;;;;;;;;;;;;;
2019/06/11 09:58:14;;;;;;;2.8;1.6;;;;;;;;;;;;;
2019/06/11 10:00:39;;;;;;;2.7;1.8;;;;;;;;;;;;;
2019/06/11 10:03:05;;;;;;;2.9;1.9;;;;;;;;;;;;;
2019/06/11 10:05:30;;;;;;;4.1;1.9;;;;;;;;;;;;;
2019/06/11 10:07:55;;;;;;;3.7;1.9;;;;;;;;;;;;;
2019/06/11 10:10:20;;;;;;;3;1.9;;;;;;;;;;;;;
2019/06/11 10:12:46;;;;;;;4.5;2;;;;;;;;;;;;;
2019/06/11 10:15:11;;;;;;;2.1;1.8;;;;;;;;;;;;;
2019/06/11 10:17:36;;;;;;;2.9;2;;;;;;;;;;;;;
2019/06/11 10:20:01;;;;;;;3;2.2;;;;;;;;;;;;;
2019/06/11 10:22:26;;;;;;;2.7;2.3;;;;;;;;;;;;;
2019/06/11 10:24:51;;;;;;;3.4;2.6;;;;;;;;;;;;;
2019/06/11 10:27:16;;;;;;;2.8;2.3;;;;;;;;;;;;;
2019/06/11 10:29:41;;;;;;;3.4;2.7;;;;;;;;;;;;;
2019/06/11 10:32:06;;;;;;;3.9;2.6;;;;;;;;;;;;;
2019/06/11 10:34:32;;;;;;;3.5;2.8;;;;;;;;;;;;;
2019/06/11 10:36:57;;;;;;;3.8;3;;;;;;;;;;;;;
2019/06/11 10:39:22;;;;;;;3.9;3.2;;;;;;;;;;;;;
2019/06/11 10:41:47;;;;;;;3.5;3.1;;;;;;;;;;;;;
2019/06/11 10:44:12;;;;;;;5.2;3.4;;;;;;;;;;;;;
2019/06/11 10:46:38;;;;;;;4.3;3.4;;;;;;;;;;;;;
2019/06/11 10:49:03;;;;;;;6.2;4.2;;;;;;;;;;;;;
2019/06/11 10:51:28;;;;;;;5.7;3.6;;;;;;;;;;;;;
2019/06/11 10:53:53;;;;;;;5.3;3.7;;;;;;;;;;;;;
2019/06/11 10:56:18;;;;;;;5.3;3.9;;;;;;;;;;;;;
2019/06/11 10:58:43;;;;;;;5.5;4.3;;;;;;;;;;;;;
2019/06/11 11:01:08;;;;;;;5.1;4.4;;;;;;;;;;;;;
2019/06/11 11:03:33;;;;;;;5.1;4.2;;;;;;;;;;;;;
2019/06/11 11:05:58;;;;;;;5.5;4.3;;;;;;;;;;;;;
2019/06/11 11:08:23;;;;;;;6.1;4.4;;;;;;;;;;;;;
2019/06/11 11:10:48;;;;;;;5.3;4.6;;;;;;;;;;;;;
2019/06/11 11:13:14;;;;;;;7.6;4.6;;;;;;;;;;;;;
2019/06/11 11:15:39;;;;;;;7.1;5.4;;;;;;;;;;;;;
2019/06/11 11:18:04;;;;;;;10.3;5.4;;;;;;;;;;;;;
2019/06/11 11:20:29;;;;;;;6.5;4.4;;;;;;;;;;;;;
2019/06/11 11:22:54;;;;;;;6.5;5.1;;;;;;;;;;;;;
2019/06/11 11:25:20;;;;;;;7.3;4.7;;;;;;;;;;;;;
2019/06/11 11:27:45;;;;;;;6;5.3;;;;;;;;;;;;;
2019/06/11 11:30:10;;;;;;;7.8;6;;;;;;;;;;;;;
2019/06/11 11:32:35;;;;;;;7.8;6.6;;;;;;;;;;;;;
2019/06/11 11:35:01;;;;;;;7.5;5.8;;;;;;;;;;;;;
2019/06/11 11:37:27;;;;;;;7.8;5.5;;;;;;;;;;;;;
2019/06/11 11:39:52;;;;;;;8.3;5.5;;;;;;;;;;;;;
2019/06/11 11:42:17;;;;;;;7.6;5.2;;;;;;;;;;;;;
2019/06/11 11:44:45;;;;;;;8.7;5.3;;;;;;;;;;;;;
2019/06/11 11:47:08;;;;;;;7.4;5.7;;;;;;;;;;;;;
2019/06/11 11:49:33;;;;;;;7.5;5.8;;;;;;;;;;;;;
2019/06/11 11:51:58;;;;;;;9;6.5;;;;;;;;;;;;;
2019/06/11 11:54:23;;;;;;;9;6;;;;;;;;;;;;;
2019/06/11 11:56:48;;;;;;;9.1;5.7;;;;;;;;;;;;;
2019/06/11 11:59:13;;;;;;;7.6;5.3;;;;;;;;;;;;;
2019/06/11 12:01:38;;;;;;;7.9;4.8;;;;;;;;;;;;;
2019/06/11 12:04:03;;;;;;;7;4.7;;;;;;;;;;;;;
2019/06/11 12:06:28;;;;;;;7.1;4.7;;;;;;;;;;;;;
2019/06/11 12:08:54;;;;;;;6.7;4.3;;;;;;;;;;;;;
2019/06/11 12:11:19;;;;;;;7.2;4.7;;;;;;;;;;;;;
2019/06/11 12:13:44;;;;;;;8;5.5;;;;;;;;;;;;;
2019/06/11 12:16:09;;;;;;;7.3;5.2;;;;;;;;;;;;;
2019/06/11 12:18:34;;;;;;;8.1;4.5;;;;;;;;;;;;;
2019/06/11 12:20:59;;;;;;;6.4;4.5;;;;;;;;;;;;;
2019/06/11 12:23:24;;;;;;;6.4;4.6;;;;;;;;;;;;;
2019/06/11 12:25:49;;;;;;;8.1;4.1;;;;;;;;;;;;;
2019/06/11 12:28:14;;;;;;;6.4;5.2;;;;;;;;;;;;;
2019/06/11 12:30:39;;;;;;;6.9;4.6;;;;;;;;;;;;;
2019/06/11 12:33:04;;;;;;;6.2;4.2;;;;;;;;;;;;;
2019/06/11 12:35:29;;;;;;;6.4;4.5;;;;;;;;;;;;;
2019/06/11 12:37:55;;;;;;;7.4;5.1;;;;;;;;;;;;;
2019/06/11 12:40:21;;;;;;;6.7;4.7;;;;;;;;;;;;;
2019/06/11 12:42:46;;;;;;;7.1;5;;;;;;;;;;;;;
2019/06/11 12:45:11;;;;;;;14.7;12.5;;;;;;;;;;;;;
2019/06/11 12:47:36;;;;;;;7.4;5.1;;;;;;;;;;;;;
2019/06/11 12:50:01;;;;;;;7.2;4.5;;;;;;;;;;;;;
2019/06/11 12:52:27;;;;;;;9.6;5.6;;;;;;;;;;;;;
2019/06/11 12:54:52;;;;;;;8.4;5.6;;;;;;;;;;;;;
2019/06/11 12:57:17;;;;;;;9.1;5.2;;;;;;;;;;;;;
2019/06/11 12:59:42;;;;;;;8.8;4.6;;;;;;;;;;;;;
2019/06/11 13:02:07;;;;;;;7;4.8;;;;;;;;;;;;;
2019/06/11 13:04:32;;;;;;;7.9;5;;;;;;;;;;;;;
2019/06/11 13:06:57;;;;;;;7.8;5;;;;;;;;;;;;;
2019/06/11 13:09:23;;;;;;;5.7;4.6;;;;;;;;;;;;;
2019/06/11 13:11:48;;;;;;;7.8;4.8;;;;;;;;;;;;;
2019/06/11 13:14:13;;;;;;;7.1;4.2;;;;;;;;;;;;;
2019/06/11 13:16:38;;;;;;;8.7;4.5;;;;;;;;;;;;;
2019/06/11 13:19:03;;;;;;;8.7;5.1;;;;;;;;;;;;;
2019/06/11 13:21:28;;;;;;;7.8;5.1;;;;;;;;;;;;;
2019/06/11 13:23:54;;;;;;;7.3;5;;;;;;;;;;;;;
2019/06/11 13:26:19;;;;;;;9;4.8;;;;;;;;;;;;;
2019/06/11 13:28:44;;;;;;;6.7;5.2;;;;;;;;;;;;;
2019/06/11 13:31:09;;;;;;;7.5;4.5;;;;;;;;;;;;;
2019/06/11 13:33:35;;;;;;;7.1;4.5;;;;;;;;;;;;;
2019/06/11 13:36:00;;;;;;;9;4.8;;;;;;;;;;;;;
2019/06/11 13:38:25;;;;;;;7.2;4.9;;;;;;;;;;;;;
2019/06/11 13:40:50;;;;;;;9.3;4.8;;;;;;;;;;;;;
2019/06/11 13:43:15;;;;;;;7.3;4.9;;;;;;;;;;;;;
2019/06/11 13:45:40;;;;;;;7.4;5.1;;;;;;;;;;;;;
2019/06/11 13:48:05;;;;;;;8.9;4.6;;;;;;;;;;;;;
2019/06/11 13:50:30;;;;;;;7.5;4.7;;;;;;;;;;;;;
2019/06/11 13:52:55;;;;;;;6.2;4.4;;;;;;;;;;;;;
2019/06/11 13:55:20;;;;;;;6.5;4.4;;;;;;;;;;;;;
2019/06/11 13:57:45;;;;;;;6.1;4.5;;;;;;;;;;;;;
2019/06/11 14:00:11;;;;;;;8.7;4.6;;;;;;;;;;;;;
2019/06/11 14:02:36;;;;;;;8.3;5.8;;;;;;;;;;;;;
2019/06/11 14:05:01;;;;;;;9.9;5.9;;;;;;;;;;;;;
2019/06/11 14:07:26;;;;;;;8.1;5.9;;;;;;;;;;;;;
2019/06/11 14:09:51;;;;;;;8.9;5.6;;;;;;;;;;;;;
2019/06/11 14:12:16;;;;;;;6.6;4.9;;;;;;;;;;;;;
2019/06/11 14:14:41;;;;;;;9;5.1;;;;;;;;;;;;;
2019/06/11 14:17:06;;;;;;;7;5.2;;;;;;;;;;;;;
2019/06/11 14:19:33;;;;;;;7.7;4.9;;;;;;;;;;;;;
2019/06/11 14:21:58;;;;;;;7.8;5;;;;;;;;;;;;;
2019/06/11 14:24:23;;;;;;;8.6;5.3;;;;;;;;;;;;;
2019/06/11 14:26:48;;;;;;;7.8;5;;;;;;;;;;;;;
2019/06/11 14:29:13;;;;;;;8.2;5.1;;;;;;;;;;;;;
2019/06/11 14:31:38;;;;;;;7.7;4.8;;;;;;;;;;;;;
2019/06/11 14:34:03;;;;;;;6.5;4.4;;;;;;;;;;;;;
2019/06/11 14:36:29;;;;;;;7.5;4.7;;;;;;;;;;;;;
2019/06/11 14:38:54;;;;;;;8.2;4.2;;;;;;;;;;;;;
2019/06/11 14:41:19;;;;;;;7;4.7;;;;;;;;;;;;;
2019/06/11 14:43:44;;;;;;;8.7;4.5;;;;;;;;;;;;;
2019/06/11 14:46:09;;;;;;;10.1;3.9;;;;;;;;;;;;;
2019/06/11 14:48:35;;;;;;;5.9;3.2;;;;;;;;;;;;;
2019/06/11 14:51:00;;;;;;;6.2;3.3;;;;;;;;;;;;;
2019/06/11 14:53:25;;;;;;;5.8;3.5;;;;;;;;;;;;;
2019/06/11 14:55:50;;;;;;;5.6;3.5;;;;;;;;;;;;;
2019/06/11 14:58:15;;;;;;;6.7;4.3;;;;;;;;;;;;;
2019/06/11 15:00:40;;;;;;;5.8;4.2;;;;;;;;;;;;;
2019/06/11 15:03:05;;;;;;;5.9;4.3;;;;;;;;;;;;;
2019/06/11 15:05:30;;;;;;;6.3;4.1;;;;;;;;;;;;;
2019/06/11 15:07:56;;;;;;;4.5;3.7;;;;;;;;;;;;;
2019/06/11 15:10:20;;;;;;;4.9;3.9;;;;;;;;;;;;;
2019/06/11 15:12:46;;;;;;;5.5;4.1;;;;;;;;;;;;;
2019/06/11 15:15:10;;;;;;;4.9;3.7;;;;;;;;;;;;;
2019/06/11 15:17:35;;;;;;;4.8;3.9;;;;;;;;;;;;;
2019/06/11 15:20:02;;;;;;;4.2;3.8;;;;;;;;;;;;;
2019/06/11 15:22:27;;;;;;;6.6;3.6;;;;;;;;;;;;;
2019/06/11 15:24:52;;;;;;;4;3.6;;;;;;;;;;;;;
2019/06/11 15:27:17;;;;;;;5;3.6;;;;;;;;;;;;;
2019/06/11 15:29:42;;;;;;;3.7;3.3;;;;;;;;;;;;;
2019/06/11 15:32:07;;;;;;;6.2;3.9;;;;;;;;;;;;;
2019/06/11 15:34:32;;;;;;;7.7;4.1;;;;;;;;;;;;;
2019/06/11 15:36:57;;;;;;;4.8;3;;;;;;;;;;;;;
2019/06/11 15:39:22;;;;;;;6;3.3;;;;;;;;;;;;;
2019/06/11 15:41:48;;;;;;;4.6;2.8;;;;;;;;;;;;;
2019/06/11 15:44:13;;;;;;;3.8;3.4;;;;;;;;;;;;;
2019/06/11 15:46:38;;;;;;;5.3;3.4;;;;;;;;;;;;;
2019/06/11 15:49:03;;;;;;;5;3.2;;;;;;;;;;;;;
2019/06/11 15:51:28;;;;;;;3.7;3.1;;;;;;;;;;;;;
2019/06/11 15:53:53;;;;;;;3.2;2.9;;;;;;;;;;;;;
2019/06/11 15:56:18;;;;;;;4.2;3;;;;;;;;;;;;;
2019/06/11 15:58:43;;;;;;;3.6;2.8;;;;;;;;;;;;;
2019/06/11 16:01:08;;;;;;;3.6;2.9;;;;;;;;;;;;;
2019/06/11 16:03:33;;;;;;;3.9;2.7;;;;;;;;;;;;;
2019/06/11 16:05:58;;;;;;;5;2.6;;;;;;;;;;;;;
2019/06/11 16:08:23;;;;;;;4.6;2.6;;;;;;;;;;;;;
2019/06/11 16:10:48;;;;;;;4.7;2.5;;;;;;;;;;;;;
2019/06/11 16:13:14;;;;;;;5.5;2.9;;;;;;;;;;;;;
2019/06/11 16:15:39;;;;;;;3.2;2.7;;;;;;;;;;;;;
2019/06/11 16:18:04;;;;;;;4.8;2.9;;;;;;;;;;;;;
2019/06/11 16:20:30;;;;;;;2.7;2.4;;;;;;;;;;;;;
2019/06/11 16:22:55;;;;;;;3.1;2.7;;;;;;;;;;;;;
2019/06/11 16:25:20;;;;;;;5.6;2.9;;;;;;;;;;;;;
2019/06/11 16:27:45;;;;;;;4.8;3.1;;;;;;;;;;;;;
2019/06/11 16:30:10;;;;;;;4.1;3.2;;;;;;;;;;;;;
2019/06/11 16:32:35;;;;;;;4.4;2.9;;;;;;;;;;;;;
2019/06/11 16:35:00;;;;;;;3.8;2.9;;;;;;;;;;;;;
2019/06/11 16:37:25;;;;;;;4.8;2.8;;;;;;;;;;;;;
2019/06/11 16:39:50;;;;;;;4.4;2.8;;;;;;;;;;;;;
2019/06/11 16:42:15;;;;;;;3;2.7;;;;;;;;;;;;;
2019/06/11 16:44:41;;;;;;;3.2;2.9;;;;;;;;;;;;;
2019/06/11 16:47:06;;;;;;;4.7;2.9;;;;;;;;;;;;;
2019/06/11 16:49:31;;;;;;;3.9;3;;;;;;;;;;;;;
2019/06/11 16:51:56;;;;;;;3.8;2.8;;;;;;;;;;;;;
2019/06/11 16:54:21;;;;;;;5.2;3.3;;;;;;;;;;;;;
2019/06/11 16:56:46;;;;;;;4.7;3;;;;;;;;;;;;;
2019/06/11 16:59:11;;;;;;;4.6;3.1;;;;;;;;;;;;;
2019/06/11 17:01:36;;;;;;;4.6;2.9;;;;;;;;;;;;;
2019/06/11 17:04:01;;;;;;;3.9;2.7;;;;;;;;;;;;;
2019/06/11 17:06:26;;;;;;;4.6;2.7;;;;;;;;;;;;;
2019/06/11 17:08:52;;;;;;;6.9;3.2;;;;;;;;;;;;;
2019/06/11 17:11:17;;;;;;;4.5;2.8;;;;;;;;;;;;;
2019/06/11 17:13:42;;;;;;;4.2;3.1;;;;;;;;;;;;;
2019/06/11 17:16:07;;;;;;;3.5;2.8;;;;;;;;;;;;;
2019/06/11 17:18:32;;;;;;;4.7;2.8;;;;;;;;;;;;;
2019/06/11 17:20:57;;;;;;;4.3;3;;;;;;;;;;;;;
2019/06/11 17:23:22;;;;;;;4.4;3;;;;;;;;;;;;;
2019/06/11 17:25:47;;;;;;;4.2;3.5;;;;;;;;;;;;;
2019/06/11 17:28:13;;;;;;;4.5;3.1;;;;;;;;;;;;;
2019/06/11 17:30:38;;;;;;;4.2;3.3;;;;;;;;;;;;;
2019/06/11 17:33:04;;;;;;;4.6;3.3;;;;;;;;;;;;;
2019/06/11 17:35:29;;;;;;;4.6;3.3;;;;;;;;;;;;;
2019/06/11 17:37:54;;;;;;;3.9;3;;;;;;;;;;;;;
2019/06/11 17:40:19;;;;;;;4.8;3;;;;;;;;;;;;;
2019/06/11 17:42:44;;;;;;;4.5;3.5;;;;;;;;;;;;;
2019/06/11 17:45:09;;;;;;;5.3;3.2;;;;;;;;;;;;;
2019/06/11 17:47:34;;;;;;;4.6;3.5;;;;;;;;;;;;;
2019/06/11 17:49:59;;;;;;;4.9;3.3;;;;;;;;;;;;;
2019/06/11 17:52:24;;;;;;;5.6;3.5;;;;;;;;;;;;;
2019/06/11 17:54:49;;;;;;;4.1;3.3;;;;;;;;;;;;;
2019/06/11 17:57:14;;;;;;;10.5;7.7;;;;;;;;;;;;;
2019/06/11 17:59:39;;;;;;;4.4;3.4;;;;;;;;;;;;;
2019/06/11 18:02:05;;;;;;;6.2;4;;;;;;;;;;;;;
2019/06/11 18:04:30;;;;;;;6;3.8;;;;;;;;;;;;;
2019/06/11 18:06:55;;;;;;;5.2;3.6;;;;;;;;;;;;;
2019/06/11 18:09:20;;;;;;;5.2;3.4;;;;;;;;;;;;;
2019/06/11 18:11:46;;;;;;;3.5;3.2;;;;;;;;;;;;;
2019/06/11 18:14:11;;;;;;;4;3.5;;;;;;;;;;;;;
2019/06/11 18:16:36;;;;;;;4.4;3.5;;;;;;;;;;;;;
2019/06/11 18:19:01;;;;;;;4.2;3.3;;;;;;;;;;;;;
2019/06/11 18:21:26;;;;;;;4.3;3.3;;;;;;;;;;;;;
2019/06/11 18:23:51;;;;;;;4.5;3.4;;;;;;;;;;;;;
2019/06/11 18:26:16;;;;;;;4.2;3.8;;;;;;;;;;;;;
2019/06/11 18:28:41;;;;;;;7;4.4;;;;;;;;;;;;;
2019/06/11 18:31:07;;;;;;;5.1;4.1;;;;;;;;;;;;;
2019/06/11 18:33:32;;;;;;;5;3.9;;;;;;;;;;;;;
2019/06/11 18:35:57;;;;;;;5;4;;;;;;;;;;;;;
2019/06/11 18:38:22;;;;;;;4.4;3.6;;;;;;;;;;;;;
2019/06/11 18:40:47;;;;;;;4.2;3.3;;;;;;;;;;;;;
2019/06/11 18:43:12;;;;;;;4.1;3.7;;;;;;;;;;;;;
2019/06/11 18:45:37;;;;;;;5.4;3.7;;;;;;;;;;;;;
2019/06/11 18:48:04;;;;;;;5.1;3.5;;;;;;;;;;;;;
2019/06/11 18:50:30;;;;;;;4.2;3.6;;;;;;;;;;;;;
2019/06/11 18:52:55;;;;;;;4.6;3.7;;;;;;;;;;;;;
2019/06/11 18:55:20;;;;;;;4.8;3.6;;;;;;;;;;;;;
2019/06/11 18:57:45;;;;;;;4.7;4.1;;;;;;;;;;;;;
2019/06/11 19:00:11;;;;;;;7.7;4;;;;;;;;;;;;;
2019/06/11 19:02:36;;;;;;;5.2;3.9;;;;;;;;;;;;;
2019/06/11 19:05:02;;;;;;;5.2;3.7;;;;;;;;;;;;;
2019/06/11 19:07:27;;;;;;;5.1;3.6;;;;;;;;;;;;;
2019/06/11 19:09:52;;;;;;;6.5;3.7;;;;;;;;;;;;;
2019/06/11 19:12:17;;;;;;;4.1;3.3;;;;;;;;;;;;;
2019/06/11 19:14:42;;;;;;;5.4;3.5;;;;;;;;;;;;;
2019/06/11 19:17:07;;;;;;;7.9;7.1;;;;;;;;;;;;;
2019/06/11 19:19:32;;;;;;;5.2;3.8;;;;;;;;;;;;;
2019/06/11 19:21:57;;;;;;;5.5;3.3;;;;;;;;;;;;;
2019/06/11 19:24:22;;;;;;;5;3.5;;;;;;;;;;;;;
2019/06/11 19:26:47;;;;;;;4.7;3.3;;;;;;;;;;;;;
2019/06/11 19:29:13;;;;;;;4.1;3.7;;;;;;;;;;;;;
2019/06/11 19:31:38;;;;;;;4.3;3.7;;;;;;;;;;;;;
2019/06/11 19:34:06;;;;;;;4.3;3.6;;;;;;;;;;;;;